createdAt,value
2023-04-19T00:00:12.231Z,87.21
2023-04-19T00:03:01.389Z,87.71
2023-04-19T00:05:50.051Z,87.88
2023-04-19T00:08:38.564Z,88.06
2023-04-19T00:11:27.082Z,87.67
2023-04-19T00:14:17.165Z,88.16
2023-04-19T00:17:05.901Z,87.63
2023-04-19T00:19:54.512Z,87.93
2023-04-19T00:22:42.995Z,88.66
2023-04-19T00:25:31.911Z,87.82
2023-04-19T00:28:20.595Z,87.98
2023-04-19T00:31:10.498Z,88.07
2023-04-19T00:33:58.988Z,88.04
2023-04-19T00:36:47.520Z,87.08
2023-04-19T00:39:36.124Z,87.96
2023-04-19T00:42:24.612Z,87.19
2023-04-19T00:45:13.239Z,87.25
2023-04-19T00:48:03.260Z,87.32
2023-04-19T00:50:52.078Z,87.32
2023-04-19T00:53:41.722Z,87.74
2023-04-19T00:56:30.741Z,87.86
2023-04-19T00:59:19.780Z,88.23
2023-04-19T01:02:08.418Z,88.60
2023-04-19T01:04:58.229Z,88.56
2023-04-19T01:07:46.809Z,88.46
2023-04-19T01:10:35.379Z,88.88
2023-04-19T01:13:23.880Z,88.88
2023-04-19T01:16:12.469Z,89.38
2023-04-19T01:19:00.981Z,89.73
2023-04-19T01:21:52.765Z,89.05
2023-04-19T01:24:42.722Z,89.20
2023-04-19T01:27:31.215Z,89.29
2023-04-19T01:30:19.720Z,89.32
2023-04-19T01:33:08.360Z,89.79
2023-04-19T01:35:56.880Z,89.89
2023-04-19T01:38:47.714Z,90.60
2023-04-19T01:41:37.697Z,90.89
2023-04-19T01:44:26.218Z,90.72
2023-04-19T01:47:14.744Z,91.69
2023-04-19T01:50:03.257Z,91.76
2023-04-19T01:52:51.844Z,92.21
2023-04-19T01:55:40.457Z,91.60
2023-04-19T01:58:30.555Z,91.88
2023-04-19T02:01:19.236Z,92.02
2023-04-19T02:04:08.599Z,91.84
2023-04-19T02:06:58.252Z,92.50
2023-04-19T02:09:46.800Z,91.96
2023-04-19T02:12:35.695Z,91.68
2023-04-19T02:15:25.567Z,92.50
2023-04-19T02:18:14.060Z,91.40
2023-04-19T02:21:02.921Z,91.93
2023-04-19T02:23:51.458Z,92.44
2023-04-19T02:26:40.730Z,92.13
2023-04-19T02:29:29.258Z,92.65
2023-04-19T02:32:19.068Z,92.74
2023-04-19T02:35:08.370Z,92.70
2023-04-19T02:37:56.849Z,92.64
2023-04-19T02:40:45.446Z,92.03
2023-04-19T02:43:33.908Z,92.13
2023-04-19T02:46:22.406Z,91.80
2023-04-19T02:49:12.288Z,91.35
2023-04-19T02:52:00.802Z,90.95
2023-04-19T02:54:49.573Z,91.47
2023-04-19T02:57:38.034Z,91.44
2023-04-19T03:00:26.574Z,91.02
2023-04-19T03:03:15.095Z,92.45
2023-04-19T03:06:05.396Z,91.01
2023-04-19T03:08:53.879Z,91.02
2023-04-19T03:11:42.976Z,91.33
2023-04-19T03:14:31.425Z,92.08
2023-04-19T03:17:19.983Z,92.23
2023-04-19T03:20:11.602Z,91.64
2023-04-19T03:23:01.530Z,91.53
2023-04-19T03:25:50.146Z,92.52
2023-04-19T03:28:38.620Z,92.01
2023-04-19T03:31:27.085Z,93.32
2023-04-19T03:34:15.725Z,92.88
2023-04-19T03:37:04.341Z,93.00
2023-04-19T03:39:54.199Z,92.63
2023-04-19T03:42:42.625Z,92.05
2023-04-19T03:45:31.121Z,92.35
2023-04-19T03:48:19.671Z,92.82
2023-04-19T03:51:08.239Z,93.31
2023-04-19T03:53:56.751Z,91.66
2023-04-19T03:56:46.765Z,90.82
2023-04-19T03:59:36.268Z,91.37
2023-04-19T04:02:24.877Z,92.62
2023-04-19T04:05:13.582Z,91.88
2023-04-19T04:08:02.149Z,91.33
2023-04-19T04:10:50.701Z,90.63
2023-04-19T04:13:40.514Z,90.75
2023-04-19T04:16:29.087Z,91.63
2023-04-19T04:19:18.544Z,91.22
2023-04-19T04:22:07.854Z,91.06
2023-04-19T04:24:58.149Z,90.85
2023-04-19T04:27:47.685Z,91.52
2023-04-19T04:30:37.542Z,91.94
2023-04-19T04:33:26.616Z,91.95
2023-04-19T04:36:15.276Z,91.08
2023-04-19T04:39:03.957Z,91.59
2023-04-19T04:41:53.238Z,91.14
2023-04-19T04:44:42.535Z,92.32
2023-04-19T04:47:33.865Z,92.39
2023-04-19T04:50:22.466Z,92.22
2023-04-19T04:53:13.080Z,92.08
2023-04-19T04:56:01.813Z,92.08
2023-04-19T04:58:50.281Z,91.65
2023-04-19T05:01:38.821Z,91.74
2023-04-19T05:04:28.738Z,91.09
2023-04-19T05:07:17.250Z,91.70
2023-04-19T05:10:06.445Z,91.73
2023-04-19T05:12:54.896Z,91.55
2023-04-19T05:15:43.377Z,92.07
2023-04-19T05:18:31.865Z,91.28
2023-04-19T05:21:21.753Z,91.44
2023-04-19T05:24:10.756Z,91.47
2023-04-19T05:26:59.282Z,91.20
2023-04-19T05:29:47.956Z,91.77
2023-04-19T05:32:36.561Z,92.43
2023-04-19T05:35:25.175Z,91.30
2023-04-19T05:38:15.048Z,91.31
2023-04-19T05:41:03.835Z,91.14
2023-04-19T05:43:52.289Z,90.57
2023-04-19T05:46:40.801Z,88.97
2023-04-19T05:49:29.399Z,89.19
2023-04-19T05:52:17.914Z,88.88
2023-04-19T05:55:08.404Z,88.85
2023-04-19T05:57:56.967Z,88.53
2023-04-19T06:00:45.675Z,87.14
2023-04-19T06:03:34.575Z,85.74
2023-04-19T06:06:23.972Z,83.93
2023-04-19T06:09:13.745Z,84.30
2023-04-19T06:12:03.581Z,84.11
2023-04-19T06:14:52.514Z,85.16
2023-04-19T06:17:41.217Z,85.91
2023-04-19T06:20:29.705Z,85.02
2023-04-19T06:23:18.651Z,83.73
2023-04-19T06:26:07.264Z,84.26
2023-04-19T06:28:57.113Z,82.04
2023-04-19T06:31:46.226Z,80.52
2023-04-19T06:34:34.755Z,80.87
2023-04-19T06:37:23.191Z,80.00
2023-04-19T06:40:12.307Z,80.56
2023-04-19T06:43:00.866Z,81.19
2023-04-19T06:45:51.001Z,79.85
2023-04-19T06:48:39.806Z,80.07
2023-04-19T06:51:28.367Z,80.77
2023-04-19T06:54:17.370Z,79.73
2023-04-19T06:57:06.417Z,78.22
2023-04-19T06:59:55.522Z,77.48
2023-04-19T07:02:45.560Z,76.28
2023-04-19T07:05:34.158Z,76.67
2023-04-19T07:08:23.241Z,76.59
2023-04-19T07:11:11.761Z,75.31
2023-04-19T07:14:00.829Z,75.24
2023-04-19T07:16:50.752Z,75.31
2023-04-19T07:19:42.389Z,74.73
2023-04-19T07:22:30.939Z,73.51
2023-04-19T07:25:19.469Z,73.29
2023-04-19T07:28:07.999Z,72.46
2023-04-19T07:30:56.637Z,69.83
2023-04-19T07:33:45.635Z,69.02
2023-04-19T07:36:37.025Z,70.25
2023-04-19T07:39:25.627Z,69.72
2023-04-19T07:42:14.224Z,68.64
2023-04-19T07:45:03.966Z,68.08
2023-04-19T07:47:52.593Z,67.69
2023-04-19T07:50:41.194Z,66.61
2023-04-19T07:53:31.032Z,65.89
2023-04-19T07:56:20.098Z,66.59
2023-04-19T07:59:09.583Z,66.76
2023-04-19T08:01:58.269Z,66.68
2023-04-19T08:04:48.398Z,66.44
2023-04-19T08:07:37.875Z,64.60
2023-04-19T08:10:28.834Z,63.98
2023-04-19T08:13:17.445Z,65.35
2023-04-19T08:18:57.759Z,63.62
2023-04-19T08:21:46.354Z,63.67
2023-04-19T08:24:34.830Z,64.50
2023-04-19T08:27:27.020Z,63.85
2023-04-19T08:30:15.932Z,62.70
2023-04-19T08:33:04.687Z,63.49
2023-04-19T08:35:53.420Z,65.19
2023-04-19T08:38:44.608Z,67.25
2023-04-19T08:41:36.906Z,67.90
2023-04-19T08:44:35.759Z,68.18
2023-04-19T08:47:31.178Z,65.47
2023-04-19T08:50:32.410Z,65.53
2023-04-19T08:53:25.626Z,67.44
2023-04-19T08:56:27.704Z,68.58
2023-04-19T08:59:21.160Z,68.07
2023-04-19T09:02:11.280Z,67.45
2023-04-19T09:05:01.473Z,69.10
2023-04-19T09:07:50.695Z,69.25
2023-04-19T09:10:47.036Z,69.74
2023-04-19T09:13:38.243Z,69.96
2023-04-19T09:16:27.033Z,69.81
2023-04-19T09:19:23.958Z,70.50
2023-04-19T09:22:13.784Z,70.21
2023-04-19T09:25:37.240Z,70.06
2023-04-19T09:28:12.015Z,70.18
2023-04-19T09:31:33.058Z,68.49
2023-04-19T09:34:24.098Z,70.24
2023-04-19T09:37:22.745Z,68.02
2023-04-19T09:40:24.789Z,67.34
2023-04-19T09:43:45.278Z,67.23
2023-04-19T09:46:32.055Z,67.21
2023-04-19T09:49:33.476Z,67.33
2023-04-19T09:52:29.990Z,66.85
2023-04-19T09:55:26.664Z,66.07
2023-04-19T09:58:16.573Z,66.08
2023-04-19T10:01:14.756Z,64.06
2023-04-19T10:04:14.822Z,64.64
2023-04-19T10:10:18.433Z,63.83
2023-04-19T10:13:19.124Z,63.66
2023-04-19T10:16:18.987Z,64.10
2023-04-19T10:19:11.641Z,64.63
2023-04-19T10:22:00.398Z,65.78
2023-04-19T10:25:12.786Z,66.10
2023-04-19T10:28:01.417Z,66.01
2023-04-19T10:31:01.600Z,67.07
2023-04-19T10:33:50.826Z,67.83
2023-04-19T10:36:39.314Z,67.23
2023-04-19T10:39:40.975Z,67.28
2023-04-19T10:43:02.686Z,67.91
2023-04-19T10:45:52.970Z,68.02
2023-04-19T10:48:44.314Z,68.75
2023-04-19T10:51:35.731Z,67.71
2023-04-19T10:54:31.274Z,67.96
2023-04-19T10:57:19.851Z,67.97
2023-04-19T11:00:21.530Z,68.62
2023-04-19T11:03:47.578Z,69.52
2023-04-19T11:06:37.969Z,69.55
2023-04-19T11:09:26.906Z,69.37
2023-04-19T11:12:17.093Z,68.05
2023-04-19T11:15:09.387Z,67.92
2023-04-19T11:18:11.994Z,68.30
2023-04-19T11:21:01.632Z,68.65
2023-04-19T11:24:07.021Z,68.08
2023-04-19T11:26:57.619Z,68.87
2023-04-19T11:29:46.133Z,67.95
2023-04-19T11:32:35.080Z,68.56
2023-04-19T11:35:24.923Z,68.99
2023-04-19T11:38:14.300Z,69.69
2023-04-19T11:41:05.436Z,70.41
2023-04-19T11:43:53.892Z,71.69
2023-04-19T11:46:42.456Z,72.11
2023-04-19T11:49:32.203Z,73.05
2023-04-19T11:52:24.970Z,72.24
2023-04-19T11:55:20.087Z,71.97
2023-04-19T11:58:10.549Z,72.82
2023-04-19T12:01:06.053Z,74.99
2023-04-19T12:03:56.463Z,74.57
2023-04-19T12:06:45.156Z,74.01
2023-04-19T12:09:36.113Z,74.49
2023-04-19T12:12:33.751Z,76.33
2023-04-19T12:15:25.851Z,75.08
2023-04-19T12:18:15.857Z,76.26
2023-04-19T12:21:06.498Z,78.71
2023-04-19T12:23:56.941Z,79.46
2023-04-19T12:28:14.499Z,80.38
2023-04-19T12:30:04.243Z,81.32
2023-04-19T12:32:55.551Z,82.29
2023-04-19T12:35:45.007Z,83.21
2023-04-19T12:38:33.597Z,82.90
2023-04-19T12:41:22.612Z,82.34
2023-04-19T12:44:11.181Z,83.52
2023-04-19T12:46:59.626Z,84.99
2023-04-19T12:49:49.563Z,85.74
2023-04-19T12:52:38.424Z,88.52
2023-04-19T12:55:26.988Z,90.99
2023-04-19T12:58:15.738Z,92.67
2023-04-19T13:01:04.319Z,94.49
2023-04-19T13:03:53.754Z,96.60
2023-04-19T13:06:45.871Z,97.20
2023-04-19T13:09:34.416Z,100.00
2023-04-19T13:12:23.810Z,100.00
2023-04-19T13:15:12.856Z,100.00
2023-04-19T13:18:01.438Z,100.00
2023-04-19T13:20:50.301Z,100.00
2023-04-19T13:23:40.449Z,100.00
2023-04-19T13:26:28.957Z,100.00
2023-04-19T13:29:17.621Z,100.00
2023-04-19T13:32:07.681Z,99.37
2023-04-19T13:34:56.394Z,100.00
2023-04-19T13:37:47.168Z,100.00
2023-04-19T13:40:37.002Z,100.00
2023-04-19T13:43:25.551Z,100.00
2023-04-19T13:46:14.219Z,96.37
2023-04-19T13:49:02.817Z,92.57
2023-04-19T13:51:51.409Z,90.95
2023-04-19T13:54:39.967Z,89.46
2023-04-19T13:57:29.825Z,89.04
2023-04-19T14:00:19.404Z,88.90
2023-04-19T14:03:07.943Z,85.66
2023-04-19T14:05:56.871Z,84.32
2023-04-19T14:08:45.352Z,84.23
2023-04-19T14:11:34.235Z,83.58
2023-04-19T14:14:24.060Z,83.63
2023-04-19T14:17:12.657Z,84.31
2023-04-19T14:20:01.259Z,81.90
2023-04-19T14:22:49.853Z,82.45
2023-04-19T14:25:38.526Z,83.63
2023-04-19T14:28:27.197Z,84.14
2023-04-19T14:31:17.138Z,83.51
2023-04-19T14:34:05.864Z,82.46
2023-04-19T14:36:54.438Z,81.87
2023-04-19T14:39:42.957Z,81.14
2023-04-19T14:42:31.591Z,80.48
2023-04-19T14:45:20.514Z,79.38
2023-04-19T14:48:10.563Z,80.85
2023-04-19T14:50:59.168Z,79.51
2023-04-19T14:53:47.621Z,80.36
2023-04-19T14:56:37.886Z,78.75
2023-04-19T14:59:28.178Z,76.58
2023-04-19T15:02:18.400Z,77.49
2023-04-19T15:05:09.701Z,77.83
2023-04-19T15:07:58.395Z,78.09
2023-04-19T15:10:46.878Z,77.91
2023-04-19T15:13:35.895Z,78.02
2023-04-19T15:16:24.398Z,76.92
2023-04-19T15:19:12.978Z,73.57
2023-04-19T15:22:04.122Z,76.13
2023-04-19T15:24:52.733Z,75.97
2023-04-19T15:27:42.293Z,76.29
2023-04-19T15:30:30.940Z,77.03
2023-04-19T15:33:19.441Z,74.88
2023-04-19T15:36:08.217Z,74.73
2023-04-19T15:38:58.837Z,75.71
2023-04-19T15:41:47.318Z,76.32
2023-04-19T15:44:35.787Z,76.36
2023-04-19T15:47:24.336Z,75.61
2023-04-19T15:50:12.787Z,75.64
2023-04-19T15:53:01.255Z,75.26
2023-04-19T15:55:51.174Z,76.67
2023-04-19T15:58:39.899Z,75.93
2023-04-19T16:01:28.451Z,77.09
2023-04-19T16:04:17.358Z,77.79
2023-04-19T16:07:06.319Z,78.11
2023-04-19T16:09:54.821Z,72.71
2023-04-19T16:12:44.741Z,72.82
2023-04-19T16:15:33.663Z,75.66
2023-04-19T16:18:22.203Z,75.49
2023-04-19T16:21:11.594Z,74.94
2023-04-19T16:24:00.832Z,74.41
2023-04-19T16:26:49.416Z,71.25
2023-04-19T16:29:39.317Z,75.24
2023-04-19T16:32:28.042Z,77.25
2023-04-19T16:35:18.256Z,77.48
2023-04-19T16:38:07.010Z,80.84
2023-04-19T16:40:55.850Z,86.02
2023-04-19T16:43:44.683Z,80.75
2023-04-19T16:46:34.588Z,82.53
2023-04-19T16:49:23.364Z,83.81
2023-04-19T16:52:12.054Z,84.37
2023-04-19T16:55:03.375Z,86.25
2023-04-19T16:57:53.707Z,89.17
2023-04-19T17:00:42.361Z,88.62
2023-04-19T17:03:32.477Z,80.85
2023-04-19T17:06:21.056Z,83.83
2023-04-19T17:09:09.638Z,83.37
2023-04-19T17:11:58.281Z,83.00
2023-04-19T17:14:46.802Z,84.05
2023-04-19T17:17:35.466Z,84.31
2023-04-19T17:20:25.582Z,78.76
2023-04-19T17:23:14.348Z,81.33
2023-04-19T17:26:02.860Z,82.11
2023-04-19T17:28:51.480Z,73.97
2023-04-19T17:31:40.031Z,73.69
2023-04-19T17:34:28.579Z,73.00
2023-04-19T17:37:18.475Z,70.67
2023-04-19T17:40:08.432Z,68.48
2023-04-19T17:42:56.942Z,67.47
2023-04-19T17:45:45.456Z,67.36
2023-04-19T17:48:34.048Z,61.38
2023-04-19T17:51:22.582Z,57.00
2023-04-19T17:54:12.704Z,54.92
2023-04-19T17:57:02.644Z,51.80
2023-04-19T17:59:51.143Z,53.18
2023-04-19T18:02:40.613Z,50.52
2023-04-19T18:05:29.338Z,48.38
2023-04-19T18:08:17.862Z,46.62
2023-04-19T18:11:07.915Z,47.33
2023-04-19T18:13:56.791Z,47.47
2023-04-19T18:16:45.325Z,46.77
2023-04-19T18:19:33.923Z,47.57
2023-04-19T18:22:22.414Z,46.20
2023-04-19T18:25:11.223Z,46.97
2023-04-19T18:28:01.032Z,47.43
2023-04-19T18:30:49.585Z,48.09
2023-04-19T18:33:38.092Z,47.99
2023-04-19T18:36:28.111Z,48.84
2023-04-19T18:39:18.701Z,49.57
2023-04-19T18:42:07.401Z,49.58
2023-04-19T18:44:57.247Z,49.97
2023-04-19T18:47:45.824Z,49.99
2023-04-19T18:50:34.430Z,50.31
2023-04-19T18:53:22.997Z,49.96
2023-04-19T18:56:12.044Z,50.73
2023-04-19T18:59:01.875Z,51.08
2023-04-19T19:01:52.361Z,49.87
2023-04-19T19:04:52.249Z,49.79
2023-04-19T19:07:46.346Z,50.35
2023-04-19T19:13:29.755Z,50.54
2023-04-19T19:16:19.711Z,51.17
2023-04-19T19:19:09.848Z,52.02
2023-04-19T19:21:58.387Z,52.35
2023-04-19T19:24:46.994Z,53.09
2023-04-19T19:27:35.604Z,52.88
2023-04-19T19:30:25.552Z,52.25
2023-04-19T19:33:14.210Z,52.07
2023-04-19T19:36:04.220Z,52.32
2023-04-19T19:38:52.768Z,51.77
2023-04-19T19:44:37.998Z,52.74
2023-04-19T19:47:27.628Z,52.50
2023-04-19T19:53:09.724Z,52.64
2023-04-19T19:55:58.434Z,52.71
2023-04-19T19:58:51.489Z,52.58
2023-04-19T20:01:41.122Z,52.43
2023-04-19T20:04:29.862Z,52.48
2023-04-19T20:10:14.707Z,52.68
2023-04-19T20:13:03.456Z,53.31
2023-04-19T20:15:52.657Z,53.67
2023-04-19T20:18:42.505Z,54.67
2023-04-19T20:21:31.285Z,54.86
2023-04-19T20:24:21.621Z,54.89
2023-04-19T20:27:11.494Z,55.54
2023-04-19T20:30:00.630Z,56.67
2023-04-19T20:32:50.408Z,57.10
2023-04-19T20:35:39.190Z,58.07
2023-04-19T20:38:27.777Z,58.60
2023-04-19T20:41:16.335Z,58.62
2023-04-19T20:44:06.522Z,58.76
2023-04-19T20:46:56.148Z,59.27
2023-04-19T20:49:44.697Z,59.23
2023-04-19T20:52:33.207Z,61.55
2023-04-19T20:55:21.724Z,62.78
2023-04-19T20:58:10.723Z,60.33
2023-04-19T21:01:00.699Z,59.95
2023-04-19T21:03:49.473Z,58.89
2023-04-19T21:06:38.544Z,59.98
2023-04-19T21:09:27.121Z,59.90
2023-04-19T21:12:15.980Z,60.21
2023-04-19T21:15:05.613Z,60.38
2023-04-19T21:17:55.567Z,62.56
2023-04-19T21:20:44.158Z,62.01
2023-04-19T21:23:32.570Z,63.69
2023-04-19T21:26:21.173Z,65.72
2023-04-19T21:29:09.629Z,65.96
2023-04-19T21:31:58.385Z,68.03
2023-04-19T21:34:48.419Z,70.03
2023-04-19T21:37:37.245Z,71.04
2023-04-19T21:40:25.961Z,72.46
2023-04-19T21:43:14.468Z,73.31
2023-04-19T21:46:04.978Z,73.68
2023-04-19T21:48:55.702Z,75.07
2023-04-19T21:51:46.256Z,76.51
2023-04-19T21:54:35.046Z,76.75
2023-04-19T21:57:24.696Z,76.54
2023-04-19T22:00:14.150Z,77.10
2023-04-19T22:03:03.018Z,76.33
2023-04-19T22:05:51.664Z,76.94
2023-04-19T22:08:42.363Z,76.29
2023-04-19T22:11:31.373Z,77.27
2023-04-19T22:14:19.873Z,78.03
2023-04-19T22:17:09.010Z,76.53
2023-04-19T22:19:59.058Z,75.78
2023-04-19T22:22:47.662Z,77.91
2023-04-19T22:25:37.622Z,80.18
2023-04-19T22:28:26.888Z,81.20
2023-04-19T22:31:15.415Z,81.80
2023-04-19T22:34:03.947Z,82.44
2023-04-19T22:36:52.652Z,82.58
2023-04-19T22:39:41.192Z,82.92
2023-04-19T22:42:31.055Z,83.10
2023-04-19T22:45:19.676Z,82.95
2023-04-19T22:48:08.197Z,83.32
2023-04-19T22:50:56.861Z,83.69
2023-04-19T22:53:45.729Z,84.07
2023-04-19T22:56:34.324Z,85.33
2023-04-19T22:59:24.127Z,85.54
2023-04-19T23:02:12.639Z,85.92
2023-04-19T23:05:03.384Z,86.30
2023-04-19T23:07:51.937Z,86.25
2023-04-19T23:10:42.441Z,85.95
2023-04-19T23:13:30.984Z,86.21
2023-04-19T23:16:20.963Z,86.80
2023-04-19T23:19:09.513Z,87.00
2023-04-19T23:21:58.004Z,87.25
2023-04-19T23:24:46.536Z,87.22
2023-04-19T23:27:35.479Z,87.37
2023-04-19T23:30:24.340Z,87.31
2023-04-19T23:33:14.164Z,87.18
2023-04-19T23:36:02.662Z,87.67
2023-04-19T23:38:51.286Z,88.09
2023-04-19T23:41:39.802Z,88.61
2023-04-19T23:44:28.288Z,89.22
2023-04-19T23:47:16.829Z,89.00
2023-04-19T23:50:07.695Z,88.82
2023-04-19T23:52:56.310Z,89.05
2023-04-19T23:55:44.762Z,88.68
2023-04-19T23:58:33.251Z,88.09
